Time;durP1;ratioP1;P1;durP2;ratioP2;P2;SDS_P1;SDS_P2;PMS_P1;PMS_P2;Temp;Humidity;BMP_temperature;BMP_pressure;BME280_temperature;BME280_humidity;BME280_pressure;Samples;Min_cycle;Max_cycle;Signal;HPM_P1;HPM_P2
2022/07/05 00:01:11;;;;;;;4.40;2.55;;;;;;;;;;4955454;29;20234;-60
2022/07/05 00:03:37;;;;;;;5.18;2.70;;;;;;;;;;4932348;29;20730;-59
2022/07/05 00:06:03;;;;;;;5.95;2.10;;;;;;;;;;4946320;28;20597;-60
2022/07/05 00:08:29;;;;;;;4.45;2.30;;;;;;;;;;4956070;29;20532;-59
2022/07/05 00:10:55;;;;;;;7.97;2.92;;;;;;;;;;4954831;29;20274;-65
2022/07/05 00:13:22;;;;;;;5.03;2.40;;;;;;;;;;4907986;29;20654;-59
2022/07/05 00:15:48;;;;;;;8.85;2.80;;;;;;;;;;4954986;29;20228;-59
2022/07/05 00:18:14;;;;;;;6.22;2.80;;;;;;;;;;4955184;29;20178;-59
2022/07/05 00:20:40;;;;;;;6.18;2.75;;;;;;;;;;4954261;28;20257;-60
2022/07/05 00:23:06;;;;;;;6.80;2.63;;;;;;;;;;4954886;29;20646;-59
2022/07/05 00:25:33;;;;;;;4.45;2.60;;;;;;;;;;4955483;29;20183;-58
2022/07/05 00:27:59;;;;;;;4.80;2.58;;;;;;;;;;4954208;28;20607;-59
2022/07/05 00:30:25;;;;;;;7.70;3.17;;;;;;;;;;4954759;29;20265;-60
2022/07/05 00:32:51;;;;;;;7.13;2.70;;;;;;;;;;4937719;29;20222;-59
2022/07/05 00:35:17;;;;;;;5.25;2.38;;;;;;;;;;4936862;28;20222;-60
2022/07/05 00:37:44;;;;;;;8.48;3.17;;;;;;;;;;4955118;29;20191;-59
2022/07/05 00:40:10;;;;;;;4.07;2.40;;;;;;;;;;4955213;29;20190;-59
2022/07/05 00:42:36;;;;;;;4.35;2.60;;;;;;;;;;4953788;28;20201;-60
2022/07/05 00:45:06;;;;;;;5.93;3.00;;;;;;;;;;4937284;29;20241;-60
2022/07/05 00:47:32;;;;;;;4.40;2.45;;;;;;;;;;4954725;29;20186;-59
2022/07/05 00:49:59;;;;;;;4.53;2.50;;;;;;;;;;4937695;29;20191;-59
2022/07/05 00:52:25;;;;;;;8.23;2.67;;;;;;;;;;4953557;28;20186;-60
2022/07/05 00:54:51;;;;;;;6.45;2.38;;;;;;;;;;4954783;29;20252;-60
2022/07/05 00:57:18;;;;;;;4.25;2.40;;;;;;;;;;4954276;29;20647;-65
2022/07/05 00:59:44;;;;;;;6.75;2.63;;;;;;;;;;4936478;29;20186;-60
2022/07/05 01:02:11;;;;;;;7.10;2.40;;;;;;;;;;4936338;29;20265;-60
2022/07/05 01:04:37;;;;;;;5.72;2.50;;;;;;;;;;4937651;29;20302;-60
2022/07/05 01:07:05;;;;;;;3.63;2.42;;;;;;;;;;4937437;29;20195;-59
2022/07/05 01:09:35;;;;;;;5.75;2.30;;;;;;;;;;4954322;29;20567;-59
2022/07/05 01:12:01;;;;;;;5.43;2.80;;;;;;;;;;4953247;28;20222;-60
2022/07/05 01:14:27;;;;;;;6.00;2.50;;;;;;;;;;4918626;29;20211;-59
2022/07/05 01:16:56;;;;;;;5.03;2.92;;;;;;;;;;4928011;29;20202;-59
2022/07/05 01:19:23;;;;;;;8.00;2.65;;;;;;;;;;4954436;29;20651;-60
2022/07/05 01:21:50;;;;;;;5.70;2.60;;;;;;;;;;4953791;28;20233;-60
2022/07/05 01:24:18;;;;;;;9.98;2.80;;;;;;;;;;4937801;29;20181;-59
2022/07/05 01:26:46;;;;;;;8.50;3.00;;;;;;;;;;4936989;29;20670;-61
2022/07/05 01:29:12;;;;;;;7.18;2.72;;;;;;;;;;4954163;29;20178;-60
2022/07/05 01:31:39;;;;;;;4.22;2.90;;;;;;;;;;4937937;29;20607;-59
2022/07/05 01:34:05;;;;;;;7.03;2.80;;;;;;;;;;4954519;29;20253;-59
2022/07/05 01:36:32;;;;;;;5.82;2.80;;;;;;;;;;4920487;29;20268;-59
2022/07/05 01:38:59;;;;;;;5.28;2.70;;;;;;;;;;4939789;29;20182;-59
2022/07/05 01:41:25;;;;;;;3.70;2.80;;;;;;;;;;4957527;29;20190;-60
2022/07/05 01:43:51;;;;;;;6.53;2.60;;;;;;;;;;4941252;29;20582;-64
2022/07/05 01:46:19;;;;;;;5.30;2.80;;;;;;;;;;4941115;29;20634;-61
2022/07/05 01:48:46;;;;;;;4.88;2.70;;;;;;;;;;4957949;29;20190;-60
2022/07/05 01:51:19;;;;;;;5.25;2.63;;;;;;;;;;4957423;28;20187;-60
2022/07/05 01:53:47;;;;;;;9.80;2.47;;;;;;;;;;4941079;29;20186;-60
2022/07/05 01:56:13;;;;;;;7.70;2.85;;;;;;;;;;4940428;29;20652;-60
2022/07/05 01:58:39;;;;;;;5.38;2.42;;;;;;;;;;4940449;29;20195;-60
2022/07/05 02:01:06;;;;;;;3.95;2.53;;;;;;;;;;4940607;29;20182;-60
2022/07/05 02:03:32;;;;;;;9.57;2.17;;;;;;;;;;4940756;29;20249;-59
2022/07/05 02:05:58;;;;;;;3.90;2.05;;;;;;;;;;4956540;28;20290;-61
2022/07/05 02:08:29;;;;;;;3.47;2.33;;;;;;;;;;4924238;29;20190;-60
2022/07/05 02:10:55;;;;;;;3.97;2.47;;;;;;;;;;4957521;29;20230;-63
2022/07/05 02:13:22;;;;;;;3.40;2.50;;;;;;;;;;4925542;28;20185;-61
2022/07/05 02:15:49;;;;;;;6.78;2.53;;;;;;;;;;4940416;29;20285;-59
2022/07/05 02:18:15;;;;;;;3.90;2.30;;;;;;;;;;4939924;29;20186;-60
2022/07/05 02:20:43;;;;;;;3.70;2.30;;;;;;;;;;4940335;29;20273;-61
2022/07/05 02:23:11;;;;;;;5.95;2.40;;;;;;;;;;4940568;29;20210;-60
2022/07/05 02:25:38;;;;;;;4.80;2.38;;;;;;;;;;4939141;28;20552;-59
2022/07/05 02:28:11;;;;;;;6.07;2.38;;;;;;;;;;4940102;29;20750;-59
2022/07/05 02:30:38;;;;;;;6.43;2.70;;;;;;;;;;4921380;29;20186;-60
2022/07/05 02:33:05;;;;;;;4.43;2.53;;;;;;;;;;4908762;29;20188;-63
2022/07/05 02:35:32;;;;;;;5.00;2.60;;;;;;;;;;4894988;29;20363;-60
2022/07/05 02:37:58;;;;;;;4.45;2.60;;;;;;;;;;4939691;29;20191;-59
2022/07/05 02:40:24;;;;;;;4.80;2.03;;;;;;;;;;4945226;28;20279;-60
2022/07/05 02:42:51;;;;;;;6.88;2.30;;;;;;;;;;4923597;29;20271;-59
2022/07/05 02:45:18;;;;;;;4.53;2.30;;;;;;;;;;4939475;29;20237;-60
2022/07/05 02:47:49;;;;;;;4.57;2.38;;;;;;;;;;4956904;29;20197;-58
2022/07/05 02:50:17;;;;;;;5.20;2.10;;;;;;;;;;4938579;29;20182;-59
2022/07/05 02:52:47;;;;;;;4.70;2.50;;;;;;;;;;4939792;29;20253;-59
2022/07/05 02:55:15;;;;;;;7.47;2.70;;;;;;;;;;4939783;28;20218;-58
2022/07/05 02:57:41;;;;;;;4.25;2.40;;;;;;;;;;4924177;29;20214;-58
2022/07/05 03:00:10;;;;;;;5.20;2.20;;;;;;;;;;4939019;28;20318;-61
2022/07/05 03:02:44;;;;;;;16.85;2.70;;;;;;;;;;4927144;29;20198;-58
2022/07/05 03:05:11;;;;;;;6.50;2.30;;;;;;;;;;4940224;29;20254;-59
2022/07/05 03:07:40;;;;;;;4.88;2.70;;;;;;;;;;4940095;29;20194;-59
2022/07/05 03:10:06;;;;;;;4.85;2.33;;;;;;;;;;4940104;29;20190;-59
2022/07/05 03:12:34;;;;;;;5.50;2.70;;;;;;;;;;4939486;29;20230;-60
2022/07/05 03:15:01;;;;;;;4.43;2.20;;;;;;;;;;4938308;28;20198;-60
2022/07/05 03:17:27;;;;;;;3.17;2.10;;;;;;;;;;4938878;29;20642;-59
2022/07/05 03:19:53;;;;;;;2.80;2.10;;;;;;;;;;4939701;29;20187;-59
2022/07/05 03:22:22;;;;;;;6.43;2.60;;;;;;;;;;4939407;29;20183;-59
2022/07/05 03:24:48;;;;;;;3.30;2.50;;;;;;;;;;4938538;29;20233;-59
2022/07/05 03:27:16;;;;;;;4.25;2.13;;;;;;;;;;4922778;29;20187;-60
2022/07/05 03:29:43;;;;;;;4.35;2.45;;;;;;;;;;4938140;28;20199;-60
2022/07/05 03:32:10;;;;;;;6.05;2.60;;;;;;;;;;4935170;29;20218;-61
2022/07/05 03:34:38;;;;;;;3.85;2.22;;;;;;;;;;4920048;29;20266;-61
2022/07/05 03:37:06;;;;;;;8.77;3.03;;;;;;;;;;4953140;29;20204;-60
2022/07/05 03:39:32;;;;;;;4.35;2.33;;;;;;;;;;4939695;29;20198;-60
2022/07/05 03:41:59;;;;;;;5.72;2.38;;;;;;;;;;4938308;29;20193;-59
2022/07/05 03:44:31;;;;;;;5.13;2.40;;;;;;;;;;4937874;28;20182;-58
2022/07/05 03:46:59;;;;;;;6.13;2.63;;;;;;;;;;4958580;28;20187;-58
2022/07/05 03:49:26;;;;;;;3.30;2.33;;;;;;;;;;4955161;29;20182;-57
2022/07/05 03:51:54;;;;;;;4.30;2.40;;;;;;;;;;4948043;29;20182;-60
2022/07/05 03:54:21;;;;;;;4.13;2.28;;;;;;;;;;4938450;29;20179;-62
2022/07/05 03:56:47;;;;;;;3.13;2.35;;;;;;;;;;4936988;29;20225;-59
2022/07/05 03:59:15;;;;;;;5.20;2.50;;;;;;;;;;4956021;29;20189;-60
2022/07/05 04:01:42;;;;;;;5.78;2.50;;;;;;;;;;4937629;29;20182;-60
2022/07/05 04:04:11;;;;;;;3.65;2.50;;;;;;;;;;4946134;29;20182;-61
2022/07/05 04:06:37;;;;;;;6.57;2.85;;;;;;;;;;4955552;29;20210;-59
2022/07/05 04:09:04;;;;;;;7.07;2.13;;;;;;;;;;4935222;29;20269;-60
2022/07/05 04:11:31;;;;;;;4.32;2.38;;;;;;;;;;4932376;29;20235;-60
2022/07/05 04:13:57;;;;;;;4.75;2.30;;;;;;;;;;4938336;29;20178;-58
2022/07/05 04:16:25;;;;;;;5.38;2.22;;;;;;;;;;4938162;29;20317;-58
2022/07/05 04:18:52;;;;;;;4.82;2.03;;;;;;;;;;4949151;29;20182;-57
2022/07/05 04:21:19;;;;;;;6.20;2.47;;;;;;;;;;4937702;28;20199;-60
2022/07/05 04:23:46;;;;;;;4.75;2.05;;;;;;;;;;4922995;29;20198;-57
2022/07/05 04:26:13;;;;;;;7.50;2.72;;;;;;;;;;4937762;29;20241;-59
2022/07/05 04:28:43;;;;;;;5.93;2.40;;;;;;;;;;4938335;29;20178;-59
2022/07/05 04:31:13;;;;;;;7.18;2.45;;;;;;;;;;4937493;29;20190;-59
2022/07/05 04:33:43;;;;;;;4.50;2.20;;;;;;;;;;4919694;29;20195;-59
2022/07/05 04:36:12;;;;;;;6.72;2.25;;;;;;;;;;4918977;29;20223;-59
2022/07/05 04:38:39;;;;;;;5.35;2.00;;;;;;;;;;4933677;29;20209;-60
2022/07/05 04:41:05;;;;;;;3.70;2.00;;;;;;;;;;4955317;29;20195;-59
2022/07/05 04:43:34;;;;;;;6.82;2.15;;;;;;;;;;4918465;29;20258;-59
2022/07/05 04:46:02;;;;;;;11.00;2.40;;;;;;;;;;4919159;29;20214;-59
2022/07/05 04:48:28;;;;;;;6.75;2.28;;;;;;;;;;4937699;29;20642;-59
2022/07/05 04:50:55;;;;;;;4.47;2.03;;;;;;;;;;4937078;29;20183;-57
2022/07/05 04:53:22;;;;;;;3.88;2.15;;;;;;;;;;4937619;29;20210;-59
2022/07/05 04:55:48;;;;;;;7.03;2.40;;;;;;;;;;4954598;29;20237;-59
2022/07/05 04:58:14;;;;;;;14.38;2.88;;;;;;;;;;4937837;29;20257;-58
2022/07/05 05:00:40;;;;;;;6.63;2.42;;;;;;;;;;4936252;29;20199;-59
2022/07/05 05:03:06;;;;;;;29.38;3.45;;;;;;;;;;4937779;29;20194;-58
2022/07/05 05:05:32;;;;;;;18.90;3.25;;;;;;;;;;4955118;29;20666;-58
2022/07/05 05:07:58;;;;;;;33.00;3.30;;;;;;;;;;4937154;29;20190;-60
2022/07/05 05:10:25;;;;;;;20.23;3.28;;;;;;;;;;4953973;28;20186;-60
2022/07/05 05:12:52;;;;;;;17.35;2.90;;;;;;;;;;4937134;29;20233;-58
2022/07/05 05:15:18;;;;;;;12.60;2.60;;;;;;;;;;4954790;29;20216;-60
2022/07/05 05:17:45;;;;;;;10.20;2.38;;;;;;;;;;4954703;29;20230;-58
2022/07/05 05:20:12;;;;;;;10.02;1.80;;;;;;;;;;4954859;29;20269;-58
2022/07/05 05:22:38;;;;;;;5.30;2.00;;;;;;;;;;4954538;29;20213;-60
2022/07/05 05:25:05;;;;;;;6.95;1.65;;;;;;;;;;4932731;29;20253;-59
2022/07/05 05:27:31;;;;;;;2.63;1.40;;;;;;;;;;4937160;29;20651;-58
2022/07/05 05:29:57;;;;;;;7.70;1.70;;;;;;;;;;4954314;29;20221;-60
2022/07/05 05:32:23;;;;;;;2.63;1.17;;;;;;;;;;4935901;29;20191;-58
2022/07/05 05:34:49;;;;;;;11.40;1.50;;;;;;;;;;4952670;29;20190;-58
2022/07/05 05:37:16;;;;;;;8.10;1.80;;;;;;;;;;4954508;29;20635;-56
2022/07/05 05:39:42;;;;;;;5.28;1.92;;;;;;;;;;4936747;29;20191;-59
2022/07/05 05:42:08;;;;;;;9.30;1.77;;;;;;;;;;4937175;29;20234;-60
2022/07/05 05:44:35;;;;;;;9.80;1.55;;;;;;;;;;4954280;29;20717;-57
2022/07/05 05:47:01;;;;;;;5.43;1.20;;;;;;;;;;4954060;29;20246;-58
2022/07/05 05:49:27;;;;;;;5.88;1.38;;;;;;;;;;4954000;29;20187;-57
2022/07/05 05:51:54;;;;;;;3.67;1.33;;;;;;;;;;4937195;29;20213;-56
2022/07/05 05:54:20;;;;;;;5.50;1.30;;;;;;;;;;4952773;28;20639;-58
2022/07/05 05:56:46;;;;;;;9.77;1.20;;;;;;;;;;4937501;29;20218;-58
2022/07/05 05:59:12;;;;;;;6.72;1.50;;;;;;;;;;4954310;29;20166;-60
2022/07/05 06:01:38;;;;;;;8.57;1.60;;;;;;;;;;4954343;29;20187;-58
2022/07/05 06:04:04;;;;;;;11.00;1.50;;;;;;;;;;4954434;29;20186;-59
2022/07/05 06:06:31;;;;;;;4.63;1.15;;;;;;;;;;4954376;29;20186;-58
2022/07/05 06:08:57;;;;;;;7.43;1.30;;;;;;;;;;4943895;29;20197;-59
2022/07/05 06:11:23;;;;;;;4.45;1.27;;;;;;;;;;4936044;29;20313;-66
2022/07/05 06:13:49;;;;;;;6.93;1.23;;;;;;;;;;4938121;28;20191;-59
2022/07/05 06:16:16;;;;;;;5.13;1.25;;;;;;;;;;4940456;29;20265;-58
2022/07/05 06:18:42;;;;;;;7.25;1.58;;;;;;;;;;4954714;29;20191;-57
2022/07/05 06:21:08;;;;;;;6.32;1.55;;;;;;;;;;4955442;29;20199;-57
2022/07/05 06:23:34;;;;;;;6.50;1.58;;;;;;;;;;4952978;28;20187;-58
2022/07/05 06:26:00;;;;;;;5.80;1.95;;;;;;;;;;4957151;29;20655;-58
2022/07/05 06:28:26;;;;;;;8.93;1.70;;;;;;;;;;4943422;29;20274;-59
2022/07/05 06:30:52;;;;;;;6.00;1.50;;;;;;;;;;4958108;29;20241;-58
2022/07/05 06:33:19;;;;;;;10.32;1.40;;;;;;;;;;4940064;29;20612;-58
2022/07/05 06:35:45;;;;;;;3.47;1.30;;;;;;;;;;4957539;29;20218;-57
2022/07/05 06:38:12;;;;;;;4.03;1.40;;;;;;;;;;4957139;29;20199;-57
2022/07/05 06:40:39;;;;;;;3.40;1.23;;;;;;;;;;4956848;29;20206;-57
2022/07/05 06:43:09;;;;;;;2.63;1.00;;;;;;;;;;4926336;29;20195;-59
2022/07/05 06:45:55;;;;;;;6.10;1.38;;;;;;;;;;4937128;29;20187;-57
2022/07/05 06:48:21;;;;;;;12.60;1.60;;;;;;;;;;4938160;29;20191;-58
2022/07/05 06:50:47;;;;;;;7.50;1.30;;;;;;;;;;4938136;29;20187;-56
2022/07/05 06:53:14;;;;;;;5.93;1.27;;;;;;;;;;4939586;29;20625;-56
2022/07/05 06:55:44;;;;;;;5.80;1.40;;;;;;;;;;4940132;29;20266;-57
2022/07/05 06:58:11;;;;;;;6.15;1.10;;;;;;;;;;4957241;28;20187;-58
2022/07/05 07:00:38;;;;;;;5.93;1.42;;;;;;;;;;4956426;28;20616;-58
2022/07/05 07:03:04;;;;;;;7.28;1.10;;;;;;;;;;4923325;29;20253;-56
2022/07/05 07:05:30;;;;;;;5.88;1.20;;;;;;;;;;4956895;29;20194;-57
2022/07/05 07:10:41;;;;;;;6.53;1.23;;;;;;;;;;4956802;29;20203;-57
2022/07/05 07:13:07;;;;;;;15.05;8.05;;;;;;;;;;4956043;29;20701;-56
2022/07/05 07:15:33;;;;;;;4.82;1.27;;;;;;;;;;4939434;29;20650;-53
2022/07/05 07:18:00;;;;;;;4.82;1.13;;;;;;;;;;4955499;28;20198;-55
2022/07/05 07:20:26;;;;;;;6.45;1.63;;;;;;;;;;4956835;29;20241;-55
2022/07/05 07:22:53;;;;;;;7.18;1.38;;;;;;;;;;4956425;29;20681;-57
2022/07/05 07:25:23;;;;;;;8.77;1.20;;;;;;;;;;4939478;29;20651;-60
2022/07/05 07:27:50;;;;;;;6.72;1.40;;;;;;;;;;4939815;29;20191;-60
2022/07/05 07:30:17;;;;;;;4.90;1.15;;;;;;;;;;4939401;29;20639;-57
2022/07/05 07:32:45;;;;;;;6.05;1.30;;;;;;;;;;4937683;29;20187;-57
2022/07/05 07:35:11;;;;;;;2.63;1.10;;;;;;;;;;4938705;28;20697;-56
2022/07/05 07:37:37;;;;;;;5.72;1.17;;;;;;;;;;4939079;29;20183;-59
2022/07/05 07:40:04;;;;;;;3.55;1.02;;;;;;;;;;4955867;28;20343;-57
2022/07/05 07:42:30;;;;;;;11.23;1.17;;;;;;;;;;4955644;29;20206;-59
2022/07/05 07:44:56;;;;;;;4.97;2.20;;;;;;;;;;4956029;29;20269;-57
2022/07/05 07:47:23;;;;;;;3.42;1.15;;;;;;;;;;4921216;28;20191;-55
2022/07/05 07:49:49;;;;;;;4.32;1.30;;;;;;;;;;4938992;29;20183;-56
2022/07/05 07:52:15;;;;;;;6.07;1.38;;;;;;;;;;4939108;29;20198;-56
2022/07/05 07:54:41;;;;;;;6.55;1.35;;;;;;;;;;4923116;29;20335;-58
2022/07/05 07:57:08;;;;;;;9.13;1.88;;;;;;;;;;4938600;29;20682;-55
2022/07/05 07:59:34;;;;;;;7.10;1.27;;;;;;;;;;4938995;29;20267;-55
2022/07/05 08:02:00;;;;;;;4.32;1.10;;;;;;;;;;4955042;28;20196;-58
2022/07/05 08:04:26;;;;;;;5.53;1.10;;;;;;;;;;4955774;29;20183;-57
2022/07/05 08:06:52;;;;;;;7.47;1.38;;;;;;;;;;4955444;28;20193;-56
2022/07/05 08:09:19;;;;;;;7.60;1.38;;;;;;;;;;4955741;29;20183;-57
2022/07/05 08:11:48;;;;;;;5.85;1.58;;;;;;;;;;4936639;29;20226;-57
2022/07/05 08:14:15;;;;;;;6.88;1.30;;;;;;;;;;4956051;29;20179;-57
2022/07/05 08:16:41;;;;;;;5.43;1.73;;;;;;;;;;4955534;29;20210;-57
2022/07/05 08:21:52;;;;;;;6.50;1.48;;;;;;;;;;4955551;29;20285;-57
2022/07/05 08:24:18;;;;;;;5.43;1.13;;;;;;;;;;4956083;29;20221;-59
2022/07/05 08:26:44;;;;;;;7.93;1.48;;;;;;;;;;4949326;29;20198;-56
2022/07/05 08:29:12;;;;;;;4.55;1.40;;;;;;;;;;4955490;29;20182;-55
2022/07/05 08:31:40;;;;;;;6.43;1.45;;;;;;;;;;4938379;29;20529;-56
2022/07/05 08:34:06;;;;;;;6.40;1.63;;;;;;;;;;4938413;29;20179;-59
2022/07/05 08:36:32;;;;;;;11.50;1.50;;;;;;;;;;4954962;29;20207;-57
2022/07/05 08:38:59;;;;;;;6.55;1.40;;;;;;;;;;4955077;29;20638;-56
2022/07/05 08:41:25;;;;;;;8.38;1.95;;;;;;;;;;4937419;29;20174;-57
2022/07/05 08:43:52;;;;;;;7.68;1.50;;;;;;;;;;4954762;29;20227;-58
2022/07/05 08:46:18;;;;;;;8.63;1.55;;;;;;;;;;4938098;29;20191;-62
2022/07/05 08:48:47;;;;;;;6.38;1.38;;;;;;;;;;4954705;28;20206;-57
2022/07/05 08:51:17;;;;;;;7.00;1.60;;;;;;;;;;4937944;29;20273;-58
2022/07/05 08:53:44;;;;;;;7.55;1.27;;;;;;;;;;4950007;29;20191;-58
2022/07/05 08:56:11;;;;;;;6.05;1.40;;;;;;;;;;4954041;28;20214;-57
2022/07/05 08:58:38;;;;;;;7.57;1.80;;;;;;;;;;4955128;29;20170;-56
2022/07/05 09:01:05;;;;;;;6.57;1.38;;;;;;;;;;4954905;29;20174;-57
2022/07/05 09:03:44;;;;;;;3.88;1.40;;;;;;;;;;4954826;29;20284;-58
2022/07/05 09:06:11;;;;;;;8.82;1.50;;;;;;;;;;4955292;29;20273;-57
2022/07/05 09:08:39;;;;;;;8.63;1.48;;;;;;;;;;4954797;29;20335;-57
2022/07/05 09:11:13;;;;;;;8.10;1.73;;;;;;;;;;4937769;29;20256;-58
2022/07/05 09:13:40;;;;;;;14.23;1.92;;;;;;;;;;4954475;29;20174;-56
2022/07/05 09:16:07;;;;;;;7.18;1.75;;;;;;;;;;4937667;29;20630;-58
2022/07/05 09:18:40;;;;;;;9.07;1.55;;;;;;;;;;4937557;29;20182;-56
2022/07/05 09:21:13;;;;;;;5.88;1.63;;;;;;;;;;4953247;28;20191;-56
2022/07/05 09:23:39;;;;;;;9.45;1.58;;;;;;;;;;4954991;29;20178;-57
2022/07/05 09:26:06;;;;;;;4.90;1.27;;;;;;;;;;4954671;29;20249;-57
2022/07/05 09:28:32;;;;;;;7.43;1.40;;;;;;;;;;4937948;29;20189;-57
2022/07/05 09:30:58;;;;;;;16.90;1.77;;;;;;;;;;4953521;28;20657;-58
2022/07/05 09:33:24;;;;;;;8.55;1.40;;;;;;;;;;4954918;29;20175;-58
2022/07/05 09:35:56;;;;;;;8.02;1.38;;;;;;;;;;4955209;29;20245;-58
2022/07/05 09:38:23;;;;;;;5.72;1.38;;;;;;;;;;4937926;29;20234;-57
2022/07/05 09:40:54;;;;;;;5.20;1.58;;;;;;;;;;4954675;29;20278;-57
2022/07/05 09:43:24;;;;;;;5.95;1.10;;;;;;;;;;4937820;29;20194;-60
2022/07/05 09:46:03;;;;;;;2.83;1.25;;;;;;;;;;4937136;29;20198;-58
2022/07/05 09:48:33;;;;;;;10.50;1.23;;;;;;;;;;4954657;29;20634;-58
2022/07/05 09:51:06;;;;;;;4.30;1.00;;;;;;;;;;4954412;29;20651;-57
2022/07/05 09:53:48;;;;;;;2.85;1.10;;;;;;;;;;4953996;29;20194;-56
2022/07/05 09:56:14;;;;;;;4.95;1.38;;;;;;;;;;4954798;29;20225;-57
2022/07/05 09:58:41;;;;;;;7.32;1.20;;;;;;;;;;4954718;28;20206;-57
2022/07/05 10:01:26;;;;;;;14.07;1.83;;;;;;;;;;4956585;28;20618;-57
2022/07/05 10:03:54;;;;;;;4.90;1.30;;;;;;;;;;4949717;29;20265;-60
2022/07/05 10:06:21;;;;;;;7.80;1.25;;;;;;;;;;4938490;28;20202;-58
2022/07/05 10:08:49;;;;;;;6.75;1.20;;;;;;;;;;4941274;29;20182;-57
2022/07/05 10:11:18;;;;;;;3.33;1.05;;;;;;;;;;4940442;29;20254;-56
2022/07/05 10:13:45;;;;;;;6.10;1.00;;;;;;;;;;4940483;29;20175;-57
2022/07/05 10:16:11;;;;;;;6.03;1.13;;;;;;;;;;4940290;29;20206;-58
2022/07/05 10:18:38;;;;;;;2.58;0.90;;;;;;;;;;4957690;29;20242;-57
2022/07/05 10:21:06;;;;;;;5.43;0.95;;;;;;;;;;4940217;28;20187;-55
2022/07/05 10:23:32;;;;;;;5.82;1.27;;;;;;;;;;4957330;28;20643;-58
2022/07/05 10:25:58;;;;;;;4.25;1.10;;;;;;;;;;4958199;29;20187;-57
2022/07/05 10:28:24;;;;;;;6.35;1.23;;;;;;;;;;4940766;29;20181;-56
2022/07/05 10:30:51;;;;;;;4.45;0.93;;;;;;;;;;4957526;29;20665;-59
2022/07/05 10:33:25;;;;;;;3.40;1.25;;;;;;;;;;4940667;29;20197;-60
2022/07/05 10:35:51;;;;;;;3.58;0.93;;;;;;;;;;4937639;29;20218;-58
2022/07/05 10:38:17;;;;;;;3.47;0.98;;;;;;;;;;4955571;28;20183;-59
2022/07/05 10:40:47;;;;;;;2.72;0.73;;;;;;;;;;4939589;29;20187;-58
2022/07/05 10:43:13;;;;;;;5.72;1.30;;;;;;;;;;4940063;29;20187;-58
2022/07/05 10:45:41;;;;;;;7.18;1.10;;;;;;;;;;4940465;29;20212;-57
2022/07/05 10:48:10;;;;;;;5.22;0.90;;;;;;;;;;4940227;29;20204;-56
2022/07/05 10:50:43;;;;;;;3.40;1.00;;;;;;;;;;4956659;28;20267;-58
2022/07/05 10:53:09;;;;;;;4.22;1.00;;;;;;;;;;4956979;29;20190;-56
2022/07/05 10:56:14;;;;;;;27.05;1.48;;;;;;;;;;4956161;29;20711;-57
2022/07/05 10:58:40;;;;;;;3.10;0.73;;;;;;;;;;4874249;29;20239;-57
2022/07/05 11:01:15;;;;;;;5.05;1.00;;;;;;;;;;4938284;29;20202;-57
2022/07/05 11:03:41;;;;;;;3.58;0.85;;;;;;;;;;4940067;29;20569;-57
2022/07/05 11:06:08;;;;;;;2.17;0.63;;;;;;;;;;4939875;29;20178;-57
2022/07/05 11:08:53;;;;;;;8.32;0.90;;;;;;;;;;4939625;29;20223;-56
2022/07/05 11:11:24;;;;;;;8.82;1.10;;;;;;;;;;4955145;28;20302;-61
2022/07/05 11:13:50;;;;;;;5.95;0.90;;;;;;;;;;4956480;29;20186;-57
2022/07/05 11:16:23;;;;;;;4.97;0.80;;;;;;;;;;4923469;29;20590;-57
2022/07/05 11:18:53;;;;;;;3.42;1.05;;;;;;;;;;4924019;29;20191;-59
2022/07/05 11:21:20;;;;;;;3.15;0.70;;;;;;;;;;4938996;29;20265;-59
2022/07/05 11:23:47;;;;;;;1.77;0.70;;;;;;;;;;4956960;29;20201;-58
2022/07/05 11:26:13;;;;;;;5.25;0.85;;;;;;;;;;4939906;29;20194;-56
2022/07/05 11:28:43;;;;;;;3.70;0.98;;;;;;;;;;4939491;29;20209;-57
2022/07/05 11:31:10;;;;;;;2.78;1.00;;;;;;;;;;4956797;29;20178;-57
2022/07/05 11:33:42;;;;;;;2.83;0.93;;;;;;;;;;4939269;29;20643;-64
2022/07/05 11:36:25;;;;;;;3.28;0.80;;;;;;;;;;4953688;28;20269;-58
2022/07/05 11:39:12;;;;;;;4.68;1.02;;;;;;;;;;4956618;29;20182;-58
2022/07/05 11:41:38;;;;;;;3.47;1.20;;;;;;;;;;4956377;29;20183;-58
2022/07/05 11:44:07;;;;;;;6.13;1.02;;;;;;;;;;4939322;29;20325;-59
2022/07/05 11:46:34;;;;;;;7.88;0.90;;;;;;;;;;4938806;29;20199;-57
2022/07/05 11:49:01;;;;;;;4.13;0.95;;;;;;;;;;4956330;29;20544;-55
2022/07/05 11:51:27;;;;;;;9.10;1.10;;;;;;;;;;4956183;29;20186;-58
2022/07/05 11:53:53;;;;;;;9.68;1.73;;;;;;;;;;4937878;28;20182;-59
2022/07/05 11:56:19;;;;;;;9.23;1.30;;;;;;;;;;4939021;29;20214;-60
2022/07/05 11:58:46;;;;;;;5.45;1.20;;;;;;;;;;4955930;29;20187;-57
2022/07/05 12:01:12;;;;;;;3.58;1.00;;;;;;;;;;4955764;29;20181;-56
2022/07/05 12:03:39;;;;;;;1.67;0.90;;;;;;;;;;4956196;28;20183;-55
2022/07/05 12:06:15;;;;;;;2.83;1.10;;;;;;;;;;4955068;28;20198;-58
2022/07/05 12:08:41;;;;;;;4.03;1.13;;;;;;;;;;4954752;28;20672;-58
2022/07/05 12:13:56;;;;;;;4.95;1.33;;;;;;;;;;4954544;28;20266;-59
2022/07/05 12:16:25;;;;;;;4.40;1.30;;;;;;;;;;4955768;29;20238;-59
2022/07/05 12:18:56;;;;;;;7.50;1.30;;;;;;;;;;4938647;29;20183;-61
2022/07/05 12:21:25;;;;;;;3.05;1.15;;;;;;;;;;4955421;29;20195;-58
2022/07/05 12:23:51;;;;;;;5.75;1.38;;;;;;;;;;4954117;28;20190;-56
2022/07/05 12:26:18;;;;;;;4.68;1.27;;;;;;;;;;4954651;29;20282;-59
2022/07/05 12:28:45;;;;;;;5.35;1.40;;;;;;;;;;4937407;29;20249;-57
2022/07/05 12:31:22;;;;;;;6.72;1.63;;;;;;;;;;4955215;29;20237;-55
2022/07/05 12:33:49;;;;;;;4.90;1.42;;;;;;;;;;4955339;29;20182;-57
2022/07/05 12:36:16;;;;;;;6.80;1.40;;;;;;;;;;4938492;29;20289;-57
2022/07/05 12:38:43;;;;;;;5.72;1.38;;;;;;;;;;4954541;28;20277;-59
2022/07/05 12:41:10;;;;;;;7.25;1.60;;;;;;;;;;4937474;29;20214;-55
2022/07/05 12:43:49;;;;;;;7.78;1.30;;;;;;;;;;4954851;29;20238;-58
2022/07/05 12:46:16;;;;;;;4.38;1.25;;;;;;;;;;4922888;29;20197;-58
2022/07/05 12:48:42;;;;;;;2.97;1.13;;;;;;;;;;4955198;29;20281;-58
2022/07/05 12:51:09;;;;;;;4.20;1.17;;;;;;;;;;4954047;28;20190;-56
2022/07/05 12:59:09;;;;;;;4.90;1.60;;;;;;;;;;4955621;29;20187;-57
2022/07/05 13:01:43;;;;;;;6.60;1.63;;;;;;;;;;4953178;28;20289;-57
2022/07/05 13:04:12;;;;;;;7.25;1.30;;;;;;;;;;4955266;29;20186;-55
2022/07/05 13:06:42;;;;;;;3.78;1.40;;;;;;;;;;4954237;28;20194;-58
2022/07/05 13:09:09;;;;;;;5.65;1.48;;;;;;;;;;4954598;29;20651;-58
2022/07/05 13:11:35;;;;;;;8.82;1.48;;;;;;;;;;4954834;29;20227;-58
2022/07/05 13:14:01;;;;;;;3.47;1.20;;;;;;;;;;4921635;29;20187;-59
2022/07/05 13:16:27;;;;;;;9.90;1.73;;;;;;;;;;4955288;29;20217;-58
2022/07/05 13:18:54;;;;;;;6.38;1.50;;;;;;;;;;4937416;29;20710;-58
2022/07/05 13:21:20;;;;;;;5.07;1.50;;;;;;;;;;4954624;29;20202;-60
2022/07/05 13:23:46;;;;;;;10.50;2.00;;;;;;;;;;4937686;29;20237;-58
2022/07/05 13:26:12;;;;;;;10.63;2.00;;;;;;;;;;4954178;29;20205;-60
2022/07/05 13:28:38;;;;;;;6.72;1.63;;;;;;;;;;4936913;29;20270;-58
2022/07/05 13:31:06;;;;;;;25.40;2.70;;;;;;;;;;4937936;29;20192;-56
2022/07/05 13:33:32;;;;;;;9.40;2.10;;;;;;;;;;4953307;28;20191;-53
2022/07/05 13:35:58;;;;;;;6.90;1.83;;;;;;;;;;4958518;29;20277;-59
2022/07/05 13:38:24;;;;;;;11.23;1.90;;;;;;;;;;4940601;29;20186;-59
2022/07/05 13:40:50;;;;;;;4.60;1.85;;;;;;;;;;4958273;29;20186;-57
2022/07/05 13:43:16;;;;;;;7.15;2.28;;;;;;;;;;4939458;29;20551;-59
2022/07/05 13:45:42;;;;;;;5.63;1.73;;;;;;;;;;4943882;29;20193;-61
2022/07/05 13:48:09;;;;;;;6.85;1.80;;;;;;;;;;4958378;29;20182;-57
2022/07/05 13:50:36;;;;;;;7.28;2.03;;;;;;;;;;4941541;29;20230;-63
2022/07/05 13:53:03;;;;;;;8.38;1.70;;;;;;;;;;4957558;28;20194;-58
2022/07/05 13:55:29;;;;;;;4.13;1.70;;;;;;;;;;4958175;29;20235;-61
2022/07/05 13:57:57;;;;;;;8.88;1.77;;;;;;;;;;4925505;29;20187;-56
2022/07/05 14:00:25;;;;;;;5.32;1.77;;;;;;;;;;4958550;29;20197;-59
2022/07/05 14:02:52;;;;;;;7.50;2.15;;;;;;;;;;4957452;29;20237;-56
2022/07/05 14:05:20;;;;;;;9.88;1.95;;;;;;;;;;4957759;29;20193;-57
2022/07/05 14:07:46;;;;;;;7.88;1.67;;;;;;;;;;4956704;28;20183;-56
2022/07/05 14:10:12;;;;;;;9.50;1.80;;;;;;;;;;4958182;29;20222;-54
2022/07/05 14:12:39;;;;;;;5.90;1.55;;;;;;;;;;4936572;29;20235;-56
2022/07/05 14:15:05;;;;;;;5.22;1.75;;;;;;;;;;4938461;29;20202;-58
2022/07/05 14:17:31;;;;;;;4.95;1.35;;;;;;;;;;4938782;29;20262;-57
2022/07/05 14:19:57;;;;;;;5.65;1.60;;;;;;;;;;4939201;29;20205;-58
2022/07/05 14:22:23;;;;;;;8.75;1.55;;;;;;;;;;4938217;29;20536;-57
2022/07/05 14:24:50;;;;;;;4.18;2.05;;;;;;;;;;4938066;29;20219;-60
2022/07/05 14:27:16;;;;;;;6.97;1.67;;;;;;;;;;4938655;29;20190;-58
2022/07/05 14:29:42;;;;;;;3.90;1.25;;;;;;;;;;4937061;29;20179;-53
2022/07/05 14:32:08;;;;;;;3.65;1.30;;;;;;;;;;4937772;29;20210;-55
2022/07/05 14:34:35;;;;;;;2.85;1.17;;;;;;;;;;4937172;29;20282;-58
2022/07/05 14:37:01;;;;;;;4.38;1.63;;;;;;;;;;4938462;29;20297;-58
2022/07/05 14:39:27;;;;;;;4.05;1.27;;;;;;;;;;4935708;29;20179;-57
2022/07/05 14:41:54;;;;;;;7.38;1.52;;;;;;;;;;4937123;29;20650;-56
2022/07/05 14:44:20;;;;;;;5.03;1.20;;;;;;;;;;4937799;29;20191;-56
2022/07/05 14:46:46;;;;;;;5.72;1.40;;;;;;;;;;4938105;29;20206;-57
2022/07/05 14:49:12;;;;;;;3.63;1.27;;;;;;;;;;4936416;29;20586;-57
2022/07/05 14:51:39;;;;;;;6.32;1.55;;;;;;;;;;4937221;29;20194;-57
2022/07/05 14:54:06;;;;;;;4.82;1.15;;;;;;;;;;4937586;29;20214;-56
2022/07/05 14:56:32;;;;;;;4.25;1.50;;;;;;;;;;4936805;29;20306;-59
2022/07/05 14:58:58;;;;;;;4.32;1.13;;;;;;;;;;4937150;29;20199;-58